createdAt,value
2022-10-12T00:04:26.048Z,90.23
2022-10-12T00:09:29.019Z,90.05
2022-10-12T00:14:31.136Z,89.89
2022-10-12T00:19:33.283Z,90.58
2022-10-12T00:24:40.606Z,90.49
2022-10-12T00:29:44.675Z,90.85
2022-10-12T00:34:46.316Z,90.79
2022-10-12T00:39:49.614Z,90.89
2022-10-12T00:44:51.837Z,90.82
2022-10-12T00:49:58.009Z,91.26
2022-10-12T00:55:01.742Z,91.26
2022-10-12T01:00:06.766Z,91.22
2022-10-12T01:05:09.593Z,90.78
2022-10-12T01:10:13.495Z,91.08
2022-10-12T01:15:16.011Z,91.32
2022-10-12T01:20:34.534Z,91.95
2022-10-12T01:25:50.054Z,91.55
2022-10-12T01:30:59.520Z,91.29
2022-10-12T01:36:09.731Z,91.66
2022-10-12T01:41:18.285Z,90.93
2022-10-12T01:46:55.356Z,91.06
2022-10-12T01:52:32.111Z,91.04
2022-10-12T01:58:00.777Z,91.32
2022-10-12T02:03:16.097Z,91.50
2022-10-12T02:08:26.417Z,92.48
2022-10-12T02:13:35.883Z,92.03
2022-10-12T02:18:45.925Z,92.42
2022-10-12T02:23:53.756Z,92.29
2022-10-12T02:28:59.088Z,92.55
2022-10-12T02:34:12.055Z,92.14
2022-10-12T02:39:24.509Z,92.78
2022-10-12T02:44:32.809Z,92.37
2022-10-12T02:49:44.627Z,92.30
2022-10-12T02:54:49.382Z,92.60
2022-10-12T02:59:52.282Z,91.92
2022-10-12T03:04:55.573Z,92.77
2022-10-12T03:09:59.856Z,92.30
2022-10-12T03:15:05.572Z,92.50
2022-10-12T03:20:13.238Z,92.41
2022-10-12T03:25:18.859Z,92.27
2022-10-12T03:30:24.040Z,92.91
2022-10-12T03:35:27.687Z,92.18
2022-10-12T03:40:30.485Z,92.32
2022-10-12T03:45:32.787Z,92.56
2022-10-12T03:50:40.676Z,93.02
2022-10-12T03:55:44.983Z,93.30
2022-10-12T04:00:46.934Z,92.77
2022-10-12T04:05:54.781Z,93.42
2022-10-12T04:10:57.026Z,92.65
2022-10-12T04:16:02.270Z,92.72
2022-10-12T04:21:09.274Z,91.66
2022-10-12T04:26:11.259Z,92.06
2022-10-12T04:31:13.010Z,92.29
2022-10-12T04:36:16.289Z,92.73
2022-10-12T04:41:18.289Z,92.50
2022-10-12T04:46:20.396Z,93.61
2022-10-12T04:51:23.838Z,93.48
2022-10-12T04:56:26.143Z,93.35
2022-10-12T05:01:28.201Z,93.44
2022-10-12T05:06:31.594Z,93.76
2022-10-12T05:11:33.232Z,93.68
2022-10-12T05:16:34.905Z,94.10
2022-10-12T05:21:37.904Z,93.85
2022-10-12T05:26:40.281Z,94.10
2022-10-12T05:31:41.961Z,93.79
2022-10-12T05:36:45.363Z,94.05
2022-10-12T05:41:47.398Z,94.15
2022-10-12T05:46:49.083Z,94.14
2022-10-12T05:51:52.475Z,94.35
2022-10-12T05:56:54.544Z,94.14
2022-10-12T06:01:56.308Z,93.97
2022-10-12T06:06:59.685Z,93.56
2022-10-12T06:12:01.441Z,93.06
2022-10-12T06:17:03.488Z,92.77
2022-10-12T06:22:07.600Z,92.88
2022-10-12T06:27:09.658Z,92.66
2022-10-12T06:32:11.506Z,92.74
2022-10-12T06:37:37.067Z,92.47
2022-10-12T06:42:36.426Z,92.61
2022-10-12T06:47:38.365Z,92.35
2022-10-12T06:52:41.464Z,91.84
2022-10-12T06:57:43.206Z,91.54
2022-10-12T07:02:45.143Z,91.59
2022-10-12T07:07:48.090Z,90.96
2022-10-12T07:12:49.702Z,90.87
2022-10-12T07:17:51.383Z,91.41
2022-10-12T07:22:54.365Z,91.43
2022-10-12T07:27:56.264Z,91.82
2022-10-12T07:32:58.340Z,91.39
2022-10-12T07:38:01.681Z,91.82
2022-10-12T07:43:15.776Z,91.29
2022-10-12T07:48:18.101Z,91.50
2022-10-12T07:53:21.559Z,91.55
2022-10-12T07:58:23.295Z,90.91
2022-10-12T08:03:24.935Z,90.11
2022-10-12T08:08:27.911Z,89.54
2022-10-12T08:13:30.108Z,88.83
2022-10-12T08:18:32.123Z,87.26
2022-10-12T08:23:36.819Z,86.07
2022-10-12T08:28:39.003Z,84.64
2022-10-12T08:33:41.246Z,83.71
2022-10-12T08:38:44.458Z,81.13
2022-10-12T08:44:02.607Z,80.18
2022-10-12T08:49:08.580Z,79.53
2022-10-12T08:54:14.279Z,78.17
2022-10-12T08:59:19.086Z,77.10
2022-10-12T09:04:40.456Z,74.69
2022-10-12T09:09:56.410Z,74.27
2022-10-12T09:15:02.193Z,71.82
2022-10-12T09:20:10.929Z,69.68
2022-10-12T09:25:15.618Z,67.57
2022-10-12T09:30:20.132Z,67.51
2022-10-12T09:35:22.570Z,65.54
2022-10-12T09:40:28.970Z,63.51
2022-10-12T09:45:33.293Z,61.30
2022-10-12T09:50:40.423Z,49.94
2022-10-12T09:55:53.578Z,41.35
2022-10-12T10:01:18.576Z,34.58
2022-10-12T10:06:24.797Z,34.11
2022-10-12T10:11:29.038Z,30.97
2022-10-12T10:16:31.003Z,31.30
2022-10-12T10:21:35.037Z,33.21
2022-10-12T10:26:55.048Z,32.50
2022-10-12T10:32:08.479Z,30.64
2022-10-12T10:37:17.182Z,29.46
2022-10-12T10:42:25.617Z,32.13
2022-10-12T10:47:29.114Z,31.49
2022-10-12T10:52:33.379Z,33.17
2022-10-12T10:57:40.310Z,31.31
2022-10-12T11:02:48.860Z,32.97
2022-10-12T11:07:53.848Z,37.33
2022-10-12T11:13:03.189Z,38.68
2022-10-12T11:18:14.115Z,41.16
2022-10-12T11:23:24.919Z,46.41
2022-10-12T11:28:30.998Z,46.43
2022-10-12T11:33:36.891Z,46.14
2022-10-12T11:38:42.372Z,46.14
2022-10-12T11:43:51.213Z,47.59
2022-10-12T11:48:58.460Z,46.63
2022-10-12T11:54:08.774Z,47.12
2022-10-12T11:59:19.180Z,46.30
2022-10-12T12:04:41.643Z,45.06
2022-10-12T12:09:50.116Z,45.97
2022-10-12T12:15:22.164Z,45.53
2022-10-12T12:21:01.654Z,46.51
2022-10-12T12:26:23.348Z,46.40
2022-10-12T12:31:28.148Z,44.68
2022-10-12T12:36:33.465Z,44.78
2022-10-12T12:41:55.126Z,44.71
2022-10-12T12:52:40.094Z,44.94
2022-10-12T12:58:01.153Z,44.84
2022-10-12T13:03:44.625Z,45.58
2022-10-12T13:09:01.824Z,45.78
2022-10-12T13:14:19.639Z,45.02
2022-10-12T13:19:24.348Z,44.62
2022-10-12T13:24:30.043Z,44.73
2022-10-12T13:29:36.351Z,45.42
2022-10-12T13:34:43.615Z,45.59
2022-10-12T13:39:46.118Z,44.21
2022-10-12T13:44:48.878Z,45.09
2022-10-12T13:49:52.489Z,45.23
2022-10-12T13:54:54.676Z,44.74
2022-10-12T13:59:59.145Z,45.45
2022-10-12T14:05:04.045Z,45.77
2022-10-12T14:10:08.927Z,44.97
2022-10-12T14:15:13.943Z,45.41
2022-10-12T14:20:27.013Z,44.74
2022-10-12T14:25:30.434Z,45.27
2022-10-12T14:30:35.114Z,46.08
2022-10-12T14:35:39.784Z,45.55
2022-10-12T14:40:42.248Z,45.57
2022-10-12T14:45:44.535Z,45.29
2022-10-12T14:50:47.852Z,45.80
2022-10-12T14:55:53.781Z,46.85
2022-10-12T15:00:57.561Z,48.22
2022-10-12T15:06:02.949Z,47.97
2022-10-12T15:11:05.106Z,48.93
2022-10-12T15:16:18.583Z,49.57
2022-10-12T15:21:22.202Z,50.81
2022-10-12T15:26:24.497Z,50.18
2022-10-12T15:31:26.180Z,51.69
2022-10-12T15:36:29.755Z,52.99
2022-10-12T15:41:32.394Z,54.43
2022-10-12T15:46:34.144Z,55.88
2022-10-12T15:51:40.521Z,57.63
2022-10-12T15:56:42.655Z,58.51
2022-10-12T16:01:44.576Z,59.06
2022-10-12T16:06:47.912Z,60.67
2022-10-12T16:11:50.189Z,62.05
2022-10-12T16:16:51.908Z,65.28
2022-10-12T16:21:55.418Z,67.47
2022-10-12T16:26:57.475Z,68.82
2022-10-12T16:31:59.480Z,70.40
2022-10-12T16:37:02.915Z,72.19
2022-10-12T16:42:05.039Z,74.12
2022-10-12T16:47:06.706Z,74.92
2022-10-12T16:52:09.693Z,76.03
2022-10-12T16:57:11.506Z,76.93
2022-10-12T17:02:14.434Z,78.58
2022-10-12T17:07:17.766Z,78.64
2022-10-12T17:12:20.096Z,79.22
2022-10-12T17:17:22.206Z,79.75
2022-10-12T17:22:25.737Z,80.43
2022-10-12T17:27:32.084Z,80.68
2022-10-12T17:32:34.002Z,82.41
2022-10-12T17:37:37.475Z,81.14
2022-10-12T17:42:39.371Z,79.06
2022-10-12T17:47:41.247Z,79.11
2022-10-12T17:52:44.573Z,77.50
2022-10-12T17:57:46.401Z,77.59
2022-10-12T18:02:48.290Z,77.11
2022-10-12T18:07:51.908Z,78.07
2022-10-12T18:12:54.427Z,78.56
2022-10-12T18:17:59.784Z,78.71
2022-10-12T18:23:02.878Z,78.76
2022-10-12T18:28:05.159Z,78.82
2022-10-12T18:33:07.180Z,77.45
2022-10-12T18:38:11.026Z,79.80
2022-10-12T18:43:14.108Z,80.57
2022-10-12T18:48:15.942Z,80.61
2022-10-12T18:53:19.248Z,80.20
2022-10-12T18:58:21.385Z,80.84
2022-10-12T19:03:24.506Z,81.28
2022-10-12T19:08:28.996Z,81.68
2022-10-12T19:13:31.118Z,81.54
2022-10-12T19:18:33.326Z,81.78
2022-10-12T19:23:37.632Z,82.46
2022-10-12T19:28:41.172Z,82.73
2022-10-12T19:33:43.701Z,82.91
2022-10-12T19:38:47.457Z,82.32
2022-10-12T19:43:49.739Z,83.21
2022-10-12T19:48:53.259Z,83.37
2022-10-12T19:53:58.581Z,83.80
2022-10-12T19:59:00.319Z,83.65
2022-10-12T20:04:04.337Z,84.29
2022-10-12T20:09:08.342Z,84.07
2022-10-12T20:14:10.921Z,85.03
2022-10-12T20:19:12.622Z,85.25
2022-10-12T20:24:16.010Z,85.40
2022-10-12T20:29:18.674Z,85.50
2022-10-12T20:34:20.614Z,85.56
2022-10-12T20:39:23.766Z,85.29
2022-10-12T20:44:26.504Z,85.73
2022-10-12T20:49:28.621Z,86.22
2022-10-12T20:54:31.687Z,85.98
2022-10-12T20:59:33.885Z,86.82
2022-10-12T21:04:38.385Z,87.15
2022-10-12T21:09:41.900Z,86.46
2022-10-12T21:14:43.585Z,86.46
2022-10-12T21:19:45.478Z,86.90
2022-10-12T21:24:48.500Z,86.75
2022-10-12T21:29:50.671Z,86.85
2022-10-12T21:34:52.344Z,86.64
2022-10-12T21:39:55.554Z,87.91
2022-10-12T21:44:57.736Z,87.93
2022-10-12T21:49:59.683Z,88.30
2022-10-12T21:55:03.324Z,88.44
2022-10-12T22:00:06.065Z,88.99
2022-10-12T22:05:08.321Z,89.08
2022-10-12T22:10:12.308Z,88.75
2022-10-12T22:15:14.125Z,89.44
2022-10-12T22:20:16.196Z,89.35
2022-10-12T22:25:19.864Z,89.40
2022-10-12T22:30:22.088Z,89.61
2022-10-12T22:35:24.345Z,89.54
2022-10-12T22:40:27.735Z,89.99
2022-10-12T22:45:31.039Z,90.03
2022-10-12T22:50:33.666Z,90.31
2022-10-12T22:55:37.086Z,90.17
2022-10-12T23:00:39.580Z,89.63
2022-10-12T23:05:48.694Z,90.48
2022-10-12T23:10:52.276Z,90.81
2022-10-12T23:15:54.425Z,90.48
2022-10-12T23:20:56.553Z,90.81
2022-10-12T23:26:00.584Z,90.67
2022-10-12T23:31:03.149Z,91.31
2022-10-12T23:36:07.350Z,91.57
2022-10-12T23:41:12.211Z,91.19
2022-10-12T23:46:14.405Z,91.25
2022-10-12T23:51:16.705Z,91.07
2022-10-12T23:56:20.747Z,91.23
